sensor_id;sensor_type;location;lat;lon;timestamp;P1;durP1;ratioP1;P2;durP2;ratioP2
21705;SDS011;11014;53.076;18.208;2023-01-25T00:00:14;29.98;;;17.85;;
21705;SDS011;11014;53.076;18.208;2023-01-25T00:03:02;25.92;;;16.63;;
21705;SDS011;11014;53.076;18.208;2023-01-25T00:08:25;32.28;;;19.50;;
21705;SDS011;11014;53.076;18.208;2023-01-25T00:10:54;32.00;;;20.73;;
21705;SDS011;11014;53.076;18.208;2023-01-25T00:13:25;34.60;;;20.02;;
21705;SDS011;11014;53.076;18.208;2023-01-25T00:15:59;33.28;;;20.42;;
21705;SDS011;11014;53.076;18.208;2023-01-25T00:18:29;40.20;;;22.00;;
21705;SDS011;11014;53.076;18.208;2023-01-25T00:20:58;30.50;;;18.92;;
21705;SDS011;11014;53.076;18.208;2023-01-25T00:23:27;35.15;;;20.15;;
21705;SDS011;11014;53.076;18.208;2023-01-25T00:25:58;32.35;;;20.23;;
21705;SDS011;11014;53.076;18.208;2023-01-25T00:28:27;32.47;;;19.95;;
21705;SDS011;11014;53.076;18.208;2023-01-25T00:30:59;28.55;;;17.67;;
21705;SDS011;11014;53.076;18.208;2023-01-25T00:33:32;26.58;;;17.23;;
21705;SDS011;11014;53.076;18.208;2023-01-25T00:39:01;28.25;;;17.75;;
21705;SDS011;11014;53.076;18.208;2023-01-25T00:41:30;27.95;;;17.35;;
21705;SDS011;11014;53.076;18.208;2023-01-25T00:43:58;25.23;;;15.73;;
21705;SDS011;11014;53.076;18.208;2023-01-25T00:46:27;27.98;;;15.32;;
21705;SDS011;11014;53.076;18.208;2023-01-25T00:48:55;27.23;;;17.48;;
21705;SDS011;11014;53.076;18.208;2023-01-25T00:51:25;26.83;;;16.80;;
21705;SDS011;11014;53.076;18.208;2023-01-25T00:53:53;26.15;;;15.68;;
21705;SDS011;11014;53.076;18.208;2023-01-25T00:56:22;22.40;;;13.52;;
21705;SDS011;11014;53.076;18.208;2023-01-25T00:58:50;21.10;;;12.68;;
21705;SDS011;11014;53.076;18.208;2023-01-25T01:01:20;22.42;;;15.40;;
21705;SDS011;11014;53.076;18.208;2023-01-25T01:03:50;27.08;;;16.77;;
21705;SDS011;11014;53.076;18.208;2023-01-25T01:06:19;27.95;;;17.27;;
21705;SDS011;11014;53.076;18.208;2023-01-25T01:08:53;27.73;;;15.82;;
21705;SDS011;11014;53.076;18.208;2023-01-25T01:11:32;23.88;;;15.38;;
21705;SDS011;11014;53.076;18.208;2023-01-25T01:14:01;24.95;;;15.60;;
21705;SDS011;11014;53.076;18.208;2023-01-25T01:16:31;27.20;;;15.73;;
21705;SDS011;11014;53.076;18.208;2023-01-25T01:19:00;20.45;;;13.45;;
21705;SDS011;11014;53.076;18.208;2023-01-25T01:21:32;20.52;;;13.77;;
21705;SDS011;11014;53.076;18.208;2023-01-25T01:24:01;20.52;;;12.90;;
21705;SDS011;11014;53.076;18.208;2023-01-25T01:26:30;19.13;;;10.95;;
21705;SDS011;11014;53.076;18.208;2023-01-25T01:28:58;21.38;;;13.35;;
21705;SDS011;11014;53.076;18.208;2023-01-25T01:31:27;22.77;;;14.23;;
21705;SDS011;11014;53.076;18.208;2023-01-25T01:34:10;19.05;;;12.25;;
21705;SDS011;11014;53.076;18.208;2023-01-25T01:36:41;27.70;;;16.25;;
21705;SDS011;11014;53.076;18.208;2023-01-25T01:39:09;21.75;;;14.85;;
21705;SDS011;11014;53.076;18.208;2023-01-25T01:41:38;25.98;;;14.98;;
21705;SDS011;11014;53.076;18.208;2023-01-25T01:44:19;26.10;;;15.93;;
21705;SDS011;11014;53.076;18.208;2023-01-25T01:47:11;28.00;;;15.30;;
21705;SDS011;11014;53.076;18.208;2023-01-25T01:49:46;20.08;;;13.05;;
21705;SDS011;11014;53.076;18.208;2023-01-25T01:52:22;22.17;;;13.73;;
21705;SDS011;11014;53.076;18.208;2023-01-25T01:55:07;22.13;;;14.20;;
21705;SDS011;11014;53.076;18.208;2023-01-25T01:57:46;23.67;;;14.57;;
21705;SDS011;11014;53.076;18.208;2023-01-25T02:00:18;23.25;;;13.77;;
21705;SDS011;11014;53.076;18.208;2023-01-25T02:02:50;20.63;;;12.43;;
21705;SDS011;11014;53.076;18.208;2023-01-25T02:08:08;20.13;;;13.52;;
21705;SDS011;11014;53.076;18.208;2023-01-25T02:10:39;19.77;;;11.48;;
21705;SDS011;11014;53.076;18.208;2023-01-25T02:13:10;21.55;;;13.32;;
21705;SDS011;11014;53.076;18.208;2023-01-25T02:15:42;24.27;;;14.05;;
21705;SDS011;11014;53.076;18.208;2023-01-25T02:18:13;18.33;;;11.82;;
21705;SDS011;11014;53.076;18.208;2023-01-25T02:20:43;18.38;;;11.40;;
21705;SDS011;11014;53.076;18.208;2023-01-25T02:23:31;20.10;;;13.40;;
21705;SDS011;11014;53.076;18.208;2023-01-25T02:26:09;19.30;;;12.15;;
21705;SDS011;11014;53.076;18.208;2023-01-25T02:28:42;15.70;;;10.40;;
21705;SDS011;11014;53.076;18.208;2023-01-25T02:31:20;16.70;;;9.10;;
21705;SDS011;11014;53.076;18.208;2023-01-25T02:33:49;18.48;;;10.63;;
21705;SDS011;11014;53.076;18.208;2023-01-25T02:36:26;19.00;;;12.60;;
21705;SDS011;11014;53.076;18.208;2023-01-25T02:39:08;19.77;;;11.65;;
21705;SDS011;11014;53.076;18.208;2023-01-25T02:41:43;18.25;;;9.93;;
21705;SDS011;11014;53.076;18.208;2023-01-25T02:44:21;13.10;;;8.13;;
21705;SDS011;11014;53.076;18.208;2023-01-25T02:46:52;19.88;;;11.68;;
21705;SDS011;11014;53.076;18.208;2023-01-25T02:49:21;19.75;;;12.13;;
21705;SDS011;11014;53.076;18.208;2023-01-25T02:51:51;21.02;;;13.45;;
21705;SDS011;11014;53.076;18.208;2023-01-25T02:54:27;16.00;;;8.75;;
21705;SDS011;11014;53.076;18.208;2023-01-25T02:56:56;19.55;;;11.65;;
21705;SDS011;11014;53.076;18.208;2023-01-25T02:59:29;17.30;;;11.07;;
21705;SDS011;11014;53.076;18.208;2023-01-25T03:01:59;16.40;;;11.48;;
21705;SDS011;11014;53.076;18.208;2023-01-25T03:04:30;14.70;;;9.88;;
21705;SDS011;11014;53.076;18.208;2023-01-25T03:06:59;16.35;;;11.35;;
21705;SDS011;11014;53.076;18.208;2023-01-25T03:09:28;19.50;;;11.95;;
21705;SDS011;11014;53.076;18.208;2023-01-25T03:11:56;14.07;;;10.00;;
21705;SDS011;11014;53.076;18.208;2023-01-25T03:14:25;20.10;;;11.07;;
21705;SDS011;11014;53.076;18.208;2023-01-25T03:16:54;17.92;;;10.27;;
21705;SDS011;11014;53.076;18.208;2023-01-25T03:19:25;15.20;;;10.85;;
21705;SDS011;11014;53.076;18.208;2023-01-25T03:21:54;16.30;;;11.85;;
21705;SDS011;11014;53.076;18.208;2023-01-25T03:24:23;15.82;;;11.13;;
21705;SDS011;11014;53.076;18.208;2023-01-25T03:26:52;15.98;;;11.57;;
21705;SDS011;11014;53.076;18.208;2023-01-25T03:29:58;16.80;;;11.45;;
21705;SDS011;11014;53.076;18.208;2023-01-25T03:32:30;16.98;;;11.95;;
21705;SDS011;11014;53.076;18.208;2023-01-25T03:35:04;17.08;;;10.57;;
21705;SDS011;11014;53.076;18.208;2023-01-25T03:37:33;18.05;;;10.93;;
21705;SDS011;11014;53.076;18.208;2023-01-25T03:40:03;11.52;;;7.07;;
21705;SDS011;11014;53.076;18.208;2023-01-25T03:42:33;14.07;;;9.73;;
21705;SDS011;11014;53.076;18.208;2023-01-25T03:45:03;15.02;;;10.50;;
21705;SDS011;11014;53.076;18.208;2023-01-25T03:47:32;13.82;;;9.43;;
21705;SDS011;11014;53.076;18.208;2023-01-25T03:50:01;14.27;;;9.98;;
21705;SDS011;11014;53.076;18.208;2023-01-25T03:52:29;16.05;;;9.60;;
21705;SDS011;11014;53.076;18.208;2023-01-25T03:55:07;14.25;;;9.63;;
21705;SDS011;11014;53.076;18.208;2023-01-25T03:57:41;9.95;;;6.05;;
21705;SDS011;11014;53.076;18.208;2023-01-25T04:00:13;15.38;;;9.55;;
21705;SDS011;11014;53.076;18.208;2023-01-25T04:02:42;13.27;;;9.07;;
21705;SDS011;11014;53.076;18.208;2023-01-25T04:05:14;14.27;;;9.43;;
21705;SDS011;11014;53.076;18.208;2023-01-25T04:07:42;10.50;;;7.32;;
21705;SDS011;11014;53.076;18.208;2023-01-25T04:10:11;11.98;;;7.65;;
21705;SDS011;11014;53.076;18.208;2023-01-25T04:12:44;4.15;;;3.10;;
21705;SDS011;11014;53.076;18.208;2023-01-25T04:15:12;15.25;;;9.82;;
21705;SDS011;11014;53.076;18.208;2023-01-25T04:17:43;16.63;;;10.23;;
21705;SDS011;11014;53.076;18.208;2023-01-25T04:20:18;17.00;;;11.10;;
21705;SDS011;11014;53.076;18.208;2023-01-25T04:22:47;15.73;;;10.65;;
21705;SDS011;11014;53.076;18.208;2023-01-25T04:25:18;13.88;;;9.15;;
21705;SDS011;11014;53.076;18.208;2023-01-25T04:27:52;16.40;;;10.32;;
21705;SDS011;11014;53.076;18.208;2023-01-25T04:30:21;14.32;;;10.18;;
21705;SDS011;11014;53.076;18.208;2023-01-25T04:32:50;14.82;;;9.85;;
21705;SDS011;11014;53.076;18.208;2023-01-25T04:35:29;15.15;;;9.15;;
21705;SDS011;11014;53.076;18.208;2023-01-25T04:38:00;15.75;;;9.45;;
21705;SDS011;11014;53.076;18.208;2023-01-25T04:40:56;16.35;;;9.45;;
21705;SDS011;11014;53.076;18.208;2023-01-25T04:43:24;15.55;;;10.25;;
21705;SDS011;11014;53.076;18.208;2023-01-25T04:46:05;13.55;;;9.20;;
21705;SDS011;11014;53.076;18.208;2023-01-25T04:48:39;14.73;;;9.30;;
21705;SDS011;11014;53.076;18.208;2023-01-25T04:51:09;16.70;;;9.73;;
21705;SDS011;11014;53.076;18.208;2023-01-25T04:54:14;13.05;;;9.30;;
21705;SDS011;11014;53.076;18.208;2023-01-25T04:56:43;14.45;;;9.57;;
21705;SDS011;11014;53.076;18.208;2023-01-25T04:59:13;17.40;;;10.35;;
21705;SDS011;11014;53.076;18.208;2023-01-25T05:05:03;12.77;;;8.38;;
21705;SDS011;11014;53.076;18.208;2023-01-25T05:07:33;14.90;;;9.50;;
21705;SDS011;11014;53.076;18.208;2023-01-25T05:10:24;14.73;;;9.27;;
21705;SDS011;11014;53.076;18.208;2023-01-25T05:13:43;14.45;;;9.38;;
21705;SDS011;11014;53.076;18.208;2023-01-25T05:16:36;16.33;;;10.05;;
21705;SDS011;11014;53.076;18.208;2023-01-25T05:19:10;14.07;;;9.43;;
21705;SDS011;11014;53.076;18.208;2023-01-25T05:21:53;15.60;;;10.18;;
21705;SDS011;11014;53.076;18.208;2023-01-25T05:24:29;16.23;;;11.10;;
21705;SDS011;11014;53.076;18.208;2023-01-25T05:27:05;18.38;;;11.77;;
21705;SDS011;11014;53.076;18.208;2023-01-25T05:30:03;19.85;;;11.15;;
21705;SDS011;11014;53.076;18.208;2023-01-25T05:33:04;16.38;;;11.35;;
21705;SDS011;11014;53.076;18.208;2023-01-25T05:35:35;15.98;;;10.10;;
21705;SDS011;11014;53.076;18.208;2023-01-25T05:38:05;16.02;;;10.15;;
21705;SDS011;11014;53.076;18.208;2023-01-25T05:40:33;14.38;;;10.25;;
21705;SDS011;11014;53.076;18.208;2023-01-25T05:43:02;17.60;;;10.50;;
21705;SDS011;11014;53.076;18.208;2023-01-25T05:45:51;19.08;;;11.88;;
21705;SDS011;11014;53.076;18.208;2023-01-25T05:48:21;16.85;;;11.23;;
21705;SDS011;11014;53.076;18.208;2023-01-25T05:50:50;17.13;;;11.55;;
21705;SDS011;11014;53.076;18.208;2023-01-25T05:53:30;16.08;;;11.63;;
21705;SDS011;11014;53.076;18.208;2023-01-25T05:56:03;15.88;;;10.57;;
21705;SDS011;11014;53.076;18.208;2023-01-25T05:58:33;14.43;;;9.63;;
21705;SDS011;11014;53.076;18.208;2023-01-25T06:01:03;16.58;;;10.65;;
21705;SDS011;11014;53.076;18.208;2023-01-25T06:03:44;12.90;;;9.55;;
21705;SDS011;11014;53.076;18.208;2023-01-25T06:06:13;15.57;;;10.05;;
21705;SDS011;11014;53.076;18.208;2023-01-25T06:08:43;14.65;;;9.60;;
21705;SDS011;11014;53.076;18.208;2023-01-25T06:11:30;14.88;;;10.07;;
21705;SDS011;11014;53.076;18.208;2023-01-25T06:13:59;13.10;;;9.55;;
21705;SDS011;11014;53.076;18.208;2023-01-25T06:16:27;15.68;;;11.07;;
21705;SDS011;11014;53.076;18.208;2023-01-25T06:19:19;21.83;;;11.98;;
21705;SDS011;11014;53.076;18.208;2023-01-25T06:22:16;12.80;;;8.48;;
21705;SDS011;11014;53.076;18.208;2023-01-25T06:24:45;12.55;;;8.45;;
21705;SDS011;11014;53.076;18.208;2023-01-25T06:27:14;14.00;;;9.75;;
21705;SDS011;11014;53.076;18.208;2023-01-25T06:29:43;13.05;;;8.52;;
21705;SDS011;11014;53.076;18.208;2023-01-25T06:32:11;10.57;;;7.40;;
21705;SDS011;11014;53.076;18.208;2023-01-25T06:34:40;10.73;;;7.80;;
21705;SDS011;11014;53.076;18.208;2023-01-25T06:37:16;11.73;;;7.90;;
21705;SDS011;11014;53.076;18.208;2023-01-25T06:39:44;12.90;;;8.82;;
21705;SDS011;11014;53.076;18.208;2023-01-25T06:42:12;12.45;;;7.22;;
21705;SDS011;11014;53.076;18.208;2023-01-25T06:44:41;12.55;;;8.70;;
21705;SDS011;11014;53.076;18.208;2023-01-25T06:47:10;12.27;;;8.60;;
21705;SDS011;11014;53.076;18.208;2023-01-25T06:49:39;14.23;;;7.88;;
21705;SDS011;11014;53.076;18.208;2023-01-25T06:52:08;11.07;;;7.57;;
21705;SDS011;11014;53.076;18.208;2023-01-25T06:54:36;11.70;;;7.28;;
21705;SDS011;11014;53.076;18.208;2023-01-25T06:57:05;11.68;;;8.70;;
21705;SDS011;11014;53.076;18.208;2023-01-25T06:59:50;12.73;;;8.15;;
21705;SDS011;11014;53.076;18.208;2023-01-25T07:02:19;11.73;;;7.53;;
21705;SDS011;11014;53.076;18.208;2023-01-25T07:04:48;12.02;;;7.85;;
21705;SDS011;11014;53.076;18.208;2023-01-25T07:07:16;12.07;;;7.82;;
21705;SDS011;11014;53.076;18.208;2023-01-25T07:09:45;11.93;;;7.53;;
21705;SDS011;11014;53.076;18.208;2023-01-25T07:12:14;12.82;;;7.45;;
21705;SDS011;11014;53.076;18.208;2023-01-25T07:14:42;14.48;;;8.30;;
21705;SDS011;11014;53.076;18.208;2023-01-25T07:17:11;13.15;;;8.20;;
21705;SDS011;11014;53.076;18.208;2023-01-25T07:19:43;14.15;;;9.13;;
21705;SDS011;11014;53.076;18.208;2023-01-25T07:22:11;11.25;;;8.35;;
21705;SDS011;11014;53.076;18.208;2023-01-25T07:24:40;15.23;;;9.63;;
21705;SDS011;11014;53.076;18.208;2023-01-25T07:27:12;12.82;;;8.98;;
21705;SDS011;11014;53.076;18.208;2023-01-25T07:29:41;15.70;;;9.95;;
21705;SDS011;11014;53.076;18.208;2023-01-25T07:32:13;14.18;;;9.43;;
21705;SDS011;11014;53.076;18.208;2023-01-25T07:37:10;13.23;;;8.60;;
21705;SDS011;11014;53.076;18.208;2023-01-25T07:39:39;14.75;;;9.48;;
21705;SDS011;11014;53.076;18.208;2023-01-25T07:42:14;16.73;;;10.32;;
21705;SDS011;11014;53.076;18.208;2023-01-25T07:44:51;14.05;;;9.30;;
21705;SDS011;11014;53.076;18.208;2023-01-25T07:47:19;15.00;;;9.48;;
21705;SDS011;11014;53.076;18.208;2023-01-25T07:49:48;13.73;;;8.77;;
21705;SDS011;11014;53.076;18.208;2023-01-25T07:52:35;15.80;;;9.40;;
21705;SDS011;11014;53.076;18.208;2023-01-25T07:55:04;17.63;;;9.45;;
21705;SDS011;11014;53.076;18.208;2023-01-25T07:57:33;14.00;;;9.30;;
21705;SDS011;11014;53.076;18.208;2023-01-25T08:00:02;14.98;;;10.15;;
21705;SDS011;11014;53.076;18.208;2023-01-25T08:02:39;15.27;;;9.32;;
21705;SDS011;11014;53.076;18.208;2023-01-25T08:05:08;13.75;;;9.73;;
21705;SDS011;11014;53.076;18.208;2023-01-25T08:07:38;14.60;;;10.07;;
21705;SDS011;11014;53.076;18.208;2023-01-25T08:10:07;16.98;;;9.25;;
21705;SDS011;11014;53.076;18.208;2023-01-25T08:12:36;12.50;;;9.10;;
21705;SDS011;11014;53.076;18.208;2023-01-25T08:15:05;14.30;;;9.40;;
21705;SDS011;11014;53.076;18.208;2023-01-25T08:17:34;12.77;;;9.15;;
21705;SDS011;11014;53.076;18.208;2023-01-25T08:20:03;13.82;;;9.75;;
21705;SDS011;11014;53.076;18.208;2023-01-25T08:22:33;12.82;;;8.45;;
21705;SDS011;11014;53.076;18.208;2023-01-25T08:25:02;14.70;;;9.38;;
21705;SDS011;11014;53.076;18.208;2023-01-25T08:27:31;15.50;;;8.90;;
21705;SDS011;11014;53.076;18.208;2023-01-25T08:29:59;13.80;;;9.50;;
21705;SDS011;11014;53.076;18.208;2023-01-25T08:32:29;15.02;;;9.13;;
21705;SDS011;11014;53.076;18.208;2023-01-25T08:34:57;15.48;;;9.93;;
21705;SDS011;11014;53.076;18.208;2023-01-25T08:37:26;14.80;;;9.25;;
21705;SDS011;11014;53.076;18.208;2023-01-25T08:39:56;14.77;;;10.32;;
21705;SDS011;11014;53.076;18.208;2023-01-25T08:42:26;17.35;;;10.38;;
21705;SDS011;11014;53.076;18.208;2023-01-25T08:44:55;16.17;;;10.18;;
21705;SDS011;11014;53.076;18.208;2023-01-25T08:47:24;15.77;;;10.50;;
21705;SDS011;11014;53.076;18.208;2023-01-25T08:49:53;21.83;;;10.80;;
21705;SDS011;11014;53.076;18.208;2023-01-25T08:52:22;17.23;;;11.40;;
21705;SDS011;11014;53.076;18.208;2023-01-25T08:54:50;16.75;;;11.18;;
21705;SDS011;11014;53.076;18.208;2023-01-25T08:57:19;27.27;;;12.40;;
21705;SDS011;11014;53.076;18.208;2023-01-25T08:59:47;14.95;;;9.13;;
21705;SDS011;11014;53.076;18.208;2023-01-25T09:02:16;15.77;;;9.32;;
21705;SDS011;11014;53.076;18.208;2023-01-25T09:04:46;15.52;;;10.80;;
21705;SDS011;11014;53.076;18.208;2023-01-25T09:07:15;20.33;;;12.32;;
21705;SDS011;11014;53.076;18.208;2023-01-25T09:09:43;17.48;;;10.95;;
21705;SDS011;11014;53.076;18.208;2023-01-25T09:12:12;19.98;;;10.68;;
21705;SDS011;11014;53.076;18.208;2023-01-25T09:14:40;19.95;;;12.73;;
21705;SDS011;11014;53.076;18.208;2023-01-25T09:17:09;16.55;;;10.27;;
21705;SDS011;11014;53.076;18.208;2023-01-25T09:19:37;18.15;;;10.68;;
21705;SDS011;11014;53.076;18.208;2023-01-25T09:22:06;16.42;;;10.48;;
21705;SDS011;11014;53.076;18.208;2023-01-25T09:24:35;16.00;;;11.32;;
21705;SDS011;11014;53.076;18.208;2023-01-25T09:27:04;17.15;;;10.32;;
21705;SDS011;11014;53.076;18.208;2023-01-25T09:29:32;17.17;;;10.77;;
21705;SDS011;11014;53.076;18.208;2023-01-25T09:32:01;15.85;;;9.93;;
21705;SDS011;11014;53.076;18.208;2023-01-25T09:34:37;18.20;;;11.60;;
21705;SDS011;11014;53.076;18.208;2023-01-25T09:37:05;18.20;;;11.45;;
21705;SDS011;11014;53.076;18.208;2023-01-25T09:39:34;17.42;;;10.68;;
21705;SDS011;11014;53.076;18.208;2023-01-25T09:47:46;16.60;;;10.93;;
21705;SDS011;11014;53.076;18.208;2023-01-25T09:55:33;15.35;;;10.88;;
21705;SDS011;11014;53.076;18.208;2023-01-25T09:58:03;17.50;;;11.48;;
21705;SDS011;11014;53.076;18.208;2023-01-25T10:00:33;19.35;;;11.07;;
21705;SDS011;11014;53.076;18.208;2023-01-25T10:06:26;11.73;;;7.07;;
21705;SDS011;11014;53.076;18.208;2023-01-25T10:09:25;17.70;;;11.30;;
21705;SDS011;11014;53.076;18.208;2023-01-25T10:12:12;29.02;;;12.45;;
21705;SDS011;11014;53.076;18.208;2023-01-25T10:14:46;35.70;;;12.45;;
21705;SDS011;11014;53.076;18.208;2023-01-25T10:23:33;25.85;;;13.63;;
21705;SDS011;11014;53.076;18.208;2023-01-25T10:26:40;17.88;;;11.73;;
21705;SDS011;11014;53.076;18.208;2023-01-25T10:29:12;17.83;;;9.25;;
21705;SDS011;11014;53.076;18.208;2023-01-25T10:31:50;32.05;;;12.38;;
21705;SDS011;11014;53.076;18.208;2023-01-25T10:34:25;28.15;;;12.45;;
21705;SDS011;11014;53.076;18.208;2023-01-25T10:37:26;16.15;;;11.20;;
21705;SDS011;11014;53.076;18.208;2023-01-25T10:42:55;17.17;;;10.82;;
21705;SDS011;11014;53.076;18.208;2023-01-25T10:45:29;12.95;;;6.22;;
21705;SDS011;11014;53.076;18.208;2023-01-25T10:47:59;15.65;;;8.98;;
21705;SDS011;11014;53.076;18.208;2023-01-25T10:53:57;9.02;;;5.80;;
21705;SDS011;11014;53.076;18.208;2023-01-25T10:56:21;18.20;;;11.38;;
21705;SDS011;11014;53.076;18.208;2023-01-25T10:59:07;16.92;;;8.75;;
21705;SDS011;11014;53.076;18.208;2023-01-25T11:01:44;11.75;;;7.20;;
21705;SDS011;11014;53.076;18.208;2023-01-25T11:04:23;22.15;;;13.20;;
21705;SDS011;11014;53.076;18.208;2023-01-25T11:07:00;21.80;;;11.43;;
21705;SDS011;11014;53.076;18.208;2023-01-25T11:09:31;18.03;;;11.30;;
21705;SDS011;11014;53.076;18.208;2023-01-25T11:14:47;21.00;;;12.57;;
21705;SDS011;11014;53.076;18.208;2023-01-25T11:17:21;22.42;;;14.07;;
21705;SDS011;11014;53.076;18.208;2023-01-25T11:20:31;20.38;;;13.68;;
21705;SDS011;11014;53.076;18.208;2023-01-25T11:22:53;25.50;;;11.20;;
21705;SDS011;11014;53.076;18.208;2023-01-25T11:28:08;26.20;;;14.60;;
21705;SDS011;11014;53.076;18.208;2023-01-25T11:30:52;26.10;;;14.25;;
21705;SDS011;11014;53.076;18.208;2023-01-25T11:33:21;22.67;;;14.63;;
21705;SDS011;11014;53.076;18.208;2023-01-25T11:38:47;19.30;;;10.57;;
21705;SDS011;11014;53.076;18.208;2023-01-25T11:41:29;23.77;;;15.43;;
21705;SDS011;11014;53.076;18.208;2023-01-25T11:44:15;26.98;;;15.13;;
21705;SDS011;11014;53.076;18.208;2023-01-25T11:58:40;25.65;;;15.90;;
21705;SDS011;11014;53.076;18.208;2023-01-25T12:06:57;34.70;;;17.48;;
21705;SDS011;11014;53.076;18.208;2023-01-25T12:12:26;26.20;;;15.13;;
21705;SDS011;11014;53.076;18.208;2023-01-25T12:15:11;24.50;;;16.05;;
21705;SDS011;11014;53.076;18.208;2023-01-25T12:21:03;29.27;;;18.02;;
21705;SDS011;11014;53.076;18.208;2023-01-25T12:26:47;25.55;;;15.23;;
21705;SDS011;11014;53.076;18.208;2023-01-25T12:30:01;31.88;;;16.80;;
21705;SDS011;11014;53.076;18.208;2023-01-25T12:32:42;25.75;;;14.85;;
21705;SDS011;11014;53.076;18.208;2023-01-25T12:35:39;36.13;;;17.77;;
21705;SDS011;11014;53.076;18.208;2023-01-25T12:38:28;28.25;;;16.40;;
21705;SDS011;11014;53.076;18.208;2023-01-25T12:47:36;33.17;;;18.67;;
21705;SDS011;11014;53.076;18.208;2023-01-25T12:50:15;35.50;;;18.45;;
21705;SDS011;11014;53.076;18.208;2023-01-25T12:52:53;28.83;;;17.88;;
21705;SDS011;11014;53.076;18.208;2023-01-25T12:55:26;24.80;;;12.68;;
21705;SDS011;11014;53.076;18.208;2023-01-25T13:04:14;26.15;;;15.23;;
21705;SDS011;11014;53.076;18.208;2023-01-25T13:07:02;26.67;;;15.35;;
21705;SDS011;11014;53.076;18.208;2023-01-25T13:10:59;26.90;;;16.50;;
21705;SDS011;11014;53.076;18.208;2023-01-25T13:12:55;26.67;;;17.40;;
21705;SDS011;11014;53.076;18.208;2023-01-25T13:15:34;30.13;;;16.88;;
21705;SDS011;11014;53.076;18.208;2023-01-25T13:20:52;29.95;;;14.68;;
21705;SDS011;11014;53.076;18.208;2023-01-25T13:23:35;32.65;;;19.83;;
21705;SDS011;11014;53.076;18.208;2023-01-25T13:28:56;34.92;;;20.38;;
21705;SDS011;11014;53.076;18.208;2023-01-25T13:39:53;30.33;;;17.05;;
21705;SDS011;11014;53.076;18.208;2023-01-25T13:42:34;27.40;;;16.25;;
21705;SDS011;11014;53.076;18.208;2023-01-25T13:45:17;28.92;;;17.23;;
21705;SDS011;11014;53.076;18.208;2023-01-25T13:48:02;31.42;;;17.30;;
21705;SDS011;11014;53.076;18.208;2023-01-25T13:50:38;29.48;;;17.48;;
21705;SDS011;11014;53.076;18.208;2023-01-25T13:53:36;28.00;;;15.45;;
21705;SDS011;11014;53.076;18.208;2023-01-25T13:59:24;32.40;;;19.42;;
21705;SDS011;11014;53.076;18.208;2023-01-25T14:02:31;30.65;;;17.77;;
21705;SDS011;11014;53.076;18.208;2023-01-25T14:05:05;36.03;;;18.75;;
21705;SDS011;11014;53.076;18.208;2023-01-25T14:08:03;33.55;;;19.35;;
21705;SDS011;11014;53.076;18.208;2023-01-25T14:10:32;31.17;;;17.50;;
21705;SDS011;11014;53.076;18.208;2023-01-25T14:13:03;35.95;;;20.42;;
21705;SDS011;11014;53.076;18.208;2023-01-25T14:15:32;37.22;;;22.13;;
21705;SDS011;11014;53.076;18.208;2023-01-25T14:18:14;32.50;;;19.05;;
21705;SDS011;11014;53.076;18.208;2023-01-25T14:20:49;30.15;;;18.63;;
21705;SDS011;11014;53.076;18.208;2023-01-25T14:26:25;27.13;;;16.13;;
21705;SDS011;11014;53.076;18.208;2023-01-25T14:28:56;29.83;;;17.08;;
21705;SDS011;11014;53.076;18.208;2023-01-25T14:31:35;32.35;;;16.90;;
21705;SDS011;11014;53.076;18.208;2023-01-25T14:34:04;30.85;;;15.65;;
21705;SDS011;11014;53.076;18.208;2023-01-25T14:36:35;29.98;;;17.85;;
21705;SDS011;11014;53.076;18.208;2023-01-25T14:42:08;32.42;;;18.10;;
21705;SDS011;11014;53.076;18.208;2023-01-25T14:44:39;28.80;;;15.27;;
21705;SDS011;11014;53.076;18.208;2023-01-25T14:47:20;34.08;;;18.77;;
21705;SDS011;11014;53.076;18.208;2023-01-25T14:53:07;32.10;;;16.58;;
21705;SDS011;11014;53.076;18.208;2023-01-25T14:55:47;33.92;;;18.08;;
21705;SDS011;11014;53.076;18.208;2023-01-25T14:58:20;33.65;;;17.90;;
21705;SDS011;11014;53.076;18.208;2023-01-25T15:01:00;34.17;;;18.92;;
21705;SDS011;11014;53.076;18.208;2023-01-25T15:03:29;35.85;;;18.63;;
21705;SDS011;11014;53.076;18.208;2023-01-25T15:06:01;35.88;;;19.40;;
21705;SDS011;11014;53.076;18.208;2023-01-25T15:08:37;29.23;;;15.82;;
21705;SDS011;11014;53.076;18.208;2023-01-25T15:14:13;34.50;;;19.42;;
21705;SDS011;11014;53.076;18.208;2023-01-25T15:16:44;31.55;;;16.45;;
21705;SDS011;11014;53.076;18.208;2023-01-25T15:19:23;33.33;;;18.27;;
21705;SDS011;11014;53.076;18.208;2023-01-25T15:21:54;36.03;;;17.52;;
21705;SDS011;11014;53.076;18.208;2023-01-25T15:27:25;36.50;;;20.13;;
21705;SDS011;11014;53.076;18.208;2023-01-25T15:29:56;39.40;;;20.30;;
21705;SDS011;11014;53.076;18.208;2023-01-25T15:32:26;39.90;;;21.25;;
21705;SDS011;11014;53.076;18.208;2023-01-25T15:34:54;30.63;;;15.25;;
21705;SDS011;11014;53.076;18.208;2023-01-25T15:37:23;33.55;;;17.20;;
21705;SDS011;11014;53.076;18.208;2023-01-25T15:39:52;31.90;;;17.83;;
21705;SDS011;11014;53.076;18.208;2023-01-25T15:42:20;33.35;;;17.42;;
21705;SDS011;11014;53.076;18.208;2023-01-25T15:44:48;37.22;;;17.90;;
21705;SDS011;11014;53.076;18.208;2023-01-25T15:47:17;33.85;;;17.48;;
21705;SDS011;11014;53.076;18.208;2023-01-25T15:49:45;36.35;;;19.85;;
21705;SDS011;11014;53.076;18.208;2023-01-25T15:52:16;36.47;;;19.27;;
21705;SDS011;11014;53.076;18.208;2023-01-25T15:54:45;33.25;;;19.77;;
21705;SDS011;11014;53.076;18.208;2023-01-25T15:57:29;34.50;;;19.48;;
21705;SDS011;11014;53.076;18.208;2023-01-25T15:59:59;38.38;;;20.10;;
21705;SDS011;11014;53.076;18.208;2023-01-25T16:04:59;32.00;;;16.58;;
21705;SDS011;11014;53.076;18.208;2023-01-25T16:07:28;36.42;;;19.35;;
21705;SDS011;11014;53.076;18.208;2023-01-25T16:10:07;35.78;;;19.02;;
21705;SDS011;11014;53.076;18.208;2023-01-25T16:12:46;37.90;;;19.75;;
21705;SDS011;11014;53.076;18.208;2023-01-25T16:15:14;34.05;;;19.45;;
21705;SDS011;11014;53.076;18.208;2023-01-25T16:17:44;39.70;;;21.13;;
21705;SDS011;11014;53.076;18.208;2023-01-25T16:20:14;36.35;;;18.98;;
21705;SDS011;11014;53.076;18.208;2023-01-25T16:22:46;35.22;;;20.70;;
21705;SDS011;11014;53.076;18.208;2023-01-25T16:25:14;39.75;;;21.45;;
21705;SDS011;11014;53.076;18.208;2023-01-25T16:27:43;38.25;;;21.58;;
21705;SDS011;11014;53.076;18.208;2023-01-25T16:30:15;36.35;;;19.83;;
21705;SDS011;11014;53.076;18.208;2023-01-25T16:32:51;35.75;;;19.75;;
21705;SDS011;11014;53.076;18.208;2023-01-25T16:35:20;33.20;;;18.73;;
21705;SDS011;11014;53.076;18.208;2023-01-25T16:37:48;37.67;;;19.70;;
21705;SDS011;11014;53.076;18.208;2023-01-25T16:40:23;35.63;;;20.02;;
21705;SDS011;11014;53.076;18.208;2023-01-25T16:42:53;38.47;;;19.60;;
21705;SDS011;11014;53.076;18.208;2023-01-25T16:45:22;39.00;;;20.02;;
21705;SDS011;11014;53.076;18.208;2023-01-25T16:47:51;35.20;;;20.05;;
21705;SDS011;11014;53.076;18.208;2023-01-25T16:50:21;35.00;;;18.25;;
21705;SDS011;11014;53.076;18.208;2023-01-25T16:52:50;34.20;;;18.27;;
21705;SDS011;11014;53.076;18.208;2023-01-25T16:55:19;35.72;;;18.58;;